»·PEaware :: AAL1531 KDEN-KSFO

AAL1531 :: KDEN-KSFO

FLIGHT INFORMATION

Flight Status: Arrived
Operator:
American Airlines
More flights by this operator :: More flights under this callsign
Pilot: Peter K. (27344)
Aircraft: AIRBUS A320
(A320)
More flights by this aircraft type
Origin: KDEN Denver Intl
United States
Destination: KSFO San Francisco Intl
United States
More flights between these airports :: More routes between these airports
Route: COORZ4 VOAXA Q136 OAL INYOE DYAMD5
File this flight plan on PilotEdge
Remarks:
Altitude:
(Current/Filed)
34,000ft
Speed:
(Current/Filed)
440kts
Departed: 28-Dec-19 11:55 AM
Arrived: 28-Dec-19 02:01 PM
Distance/Time
Traveled:
838nm/2:06
Distance/Time
To Go:
Arrived

Flight Plot

Page will automatically refresh every two minutes.

Flight plan parsing failed; only flown route is shown


Map Options




Map Legend


Flown Route
Filed Route
Departure Airport
Arrival Airport
Navaid (VOR, NDB)
Fix

Horizontal Profiles

Position Reports

Time Latitude Longitude Heading Altitude Ground
Speed
28-Dec-19 11:11 39.855187 -104.664938 90 5443ft 0kts
28-Dec-19 11:12 39.855187 -104.664938 90 5443ft 0kts
28-Dec-19 11:13 39.855187 -104.664938 90 5443ft 0kts
28-Dec-19 11:14 39.855187 -104.664938 90 5443ft 0kts
28-Dec-19 11:15 39.855187 -104.664938 90 5443ft 0kts
28-Dec-19 11:16 39.855187 -104.664938 90 5443ft 0kts
28-Dec-19 11:17 39.855187 -104.664938 90 5443ft 0kts
28-Dec-19 11:18 39.855187 -104.664938 90 5443ft 0kts
28-Dec-19 11:19 39.855187 -104.664938 90 5443ft 0kts
28-Dec-19 11:20 39.855187 -104.664938 90 5443ft 0kts
28-Dec-19 11:21 39.855187 -104.664938 90 5443ft 0kts
28-Dec-19 11:22 39.855187 -104.664938 90 5443ft 0kts
28-Dec-19 11:23 39.855187 -104.664938 90 5443ft 0kts
28-Dec-19 11:24 39.855187 -104.664938 90 5443ft 0kts
28-Dec-19 11:25 39.855187 -104.664938 90 5443ft 0kts
28-Dec-19 11:26 39.855187 -104.664938 90 5443ft 0kts
28-Dec-19 11:27 39.855187 -104.664938 90 5443ft 0kts
28-Dec-19 11:28 39.855187 -104.664938 90 5443ft 0kts
28-Dec-19 11:29 39.855187 -104.664938 90 5443ft 0kts
28-Dec-19 11:30 39.855187 -104.664938 90 5443ft 0kts
28-Dec-19 11:31 39.855187 -104.664938 90 5443ft 0kts
28-Dec-19 11:32 39.855187 -104.664938 90 5443ft 0kts
28-Dec-19 11:33 39.855187 -104.664938 90 5443ft 0kts
28-Dec-19 11:34 39.855187 -104.664938 90 5443ft 0kts
28-Dec-19 11:35 39.855187 -104.664938 90 5443ft 0kts
28-Dec-19 11:36 39.855187 -104.664938 90 5443ft 0kts
28-Dec-19 11:37 39.855187 -104.664938 90 5443ft 0kts
28-Dec-19 11:38 39.855187 -104.664938 90 5443ft 0kts
28-Dec-19 11:39 39.855204 -104.665508 110 5443ft 2kts
28-Dec-19 11:40 39.855583 -104.665835 181 5443ft 0kts
28-Dec-19 11:41 39.855582 -104.665835 181 5443ft 0kts
28-Dec-19 11:42 39.855582 -104.665835 181 5443ft 0kts
28-Dec-19 11:43 39.855311 -104.665845 178 5443ft 9kts
28-Dec-19 11:44 39.852307 -104.667973 271 5443ft 18kts
28-Dec-19 11:45 39.852395 -104.678105 272 5443ft 38kts
28-Dec-19 11:46 39.851272 -104.684056 179 5443ft 13kts
28-Dec-19 11:47 39.845175 -104.684126 180 5443ft 27kts
28-Dec-19 11:48 39.841949 -104.684162 179 5443ft 0kts
28-Dec-19 11:49 39.841949 -104.684162 179 5443ft 0kts
28-Dec-19 11:50 39.841949 -104.684162 179 5443ft 0kts
28-Dec-19 11:51 39.841949 -104.684162 179 5443ft 0kts
28-Dec-19 11:52 39.841949 -104.684162 179 5443ft 0kts
28-Dec-19 11:53 39.840740 -104.684468 232 5443ft 8kts
28-Dec-19 11:54 39.840797 -104.706399 276 5487ft 171kts
28-Dec-19 11:55 39.842510 -104.767747 276 7696ft 191kts
28-Dec-19 11:56 39.843614 -104.839554 275 9202ft 229kts
28-Dec-19 11:57 39.845466 -104.923784 274 10376ft 299kts
28-Dec-19 11:58 39.847695 -105.023095 271 11554ft 350kts
28-Dec-19 11:59 39.849743 -105.123422 270 13303ft 364kts
28-Dec-19 12:00 39.851828 -105.230440 270 15059ft 374kts
28-Dec-19 12:01 39.853912 -105.341888 270 16707ft 383kts
28-Dec-19 12:02 39.850693 -105.462551 264 18305ft 392kts
28-Dec-19 12:03 39.841868 -105.614488 264 20129ft 402kts
28-Dec-19 12:04 39.834153 -105.754075 264 21590ft 411kts
28-Dec-19 12:05 39.827262 -105.877100 264 22754ft 418kts
28-Dec-19 12:06 39.820148 -106.001827 264 23826ft 425kts
28-Dec-19 12:07 39.812796 -106.128323 263 24813ft 432kts
28-Dec-19 12:08 39.804817 -106.262980 263 25768ft 439kts
28-Dec-19 12:09 39.796382 -106.402516 263 26692ft 445kts
28-Dec-19 12:10 39.787612 -106.538133 261 27513ft 451kts
28-Dec-19 12:11 39.772283 -106.680303 259 28281ft 457kts
28-Dec-19 12:13 39.758870 -106.802808 259 29193ft 455kts
28-Dec-19 12:14 39.744789 -106.930017 261 30395ft 446kts
28-Dec-19 12:15 39.730269 -107.060053 262 30740ft 459kts
28-Dec-19 12:16 39.715039 -107.194945 262 31628ft 458kts
28-Dec-19 12:17 39.699272 -107.332929 262 32525ft 456kts
28-Dec-19 12:18 39.683294 -107.471376 262 33364ft 454kts
28-Dec-19 12:19 39.666924 -107.611721 262 33918ft 452kts
28-Dec-19 12:20 39.648052 -107.771896 261 33920ft 467kts
28-Dec-19 12:21 39.628106 -107.938807 261 33921ft 468kts
28-Dec-19 12:22 39.608098 -108.104171 261 33926ft 468kts
28-Dec-19 12:23 39.586756 -108.278427 261 33936ft 468kts
28-Dec-19 12:24 39.565624 -108.448840 261 33939ft 468kts
28-Dec-19 12:25 39.543338 -108.626116 261 33939ft 468kts
28-Dec-19 12:26 39.522176 -108.792492 260 33939ft 468kts
28-Dec-19 12:27 39.498877 -108.973537 261 33938ft 468kts
28-Dec-19 12:28 39.475106 -109.155928 263 33937ft 472kts
28-Dec-19 12:29 39.450732 -109.340537 264 33954ft 474kts
28-Dec-19 12:30 39.426043 -109.525142 264 33965ft 473kts
28-Dec-19 12:31 39.404514 -109.684302 263 33964ft 474kts
28-Dec-19 12:32 39.385508 -109.823433 263 33965ft 474kts
28-Dec-19 12:33 39.365338 -109.969663 263 33967ft 474kts
28-Dec-19 12:33 39.348715 -110.094090 263 33978ft 474kts
28-Dec-19 12:34 39.328348 -110.245377 263 33981ft 474kts
28-Dec-19 12:36 39.303622 -110.426862 263 33984ft 474kts
28-Dec-19 12:36 39.283975 -110.569504 263 33983ft 475kts
28-Dec-19 12:37 39.262200 -110.726040 263 33983ft 474kts
28-Dec-19 12:38 39.242772 -110.864448 263 33983ft 474kts
28-Dec-19 12:39 39.221754 -111.012774 264 33982ft 478kts
28-Dec-19 12:40 39.200029 -111.164640 266 33984ft 482kts
28-Dec-19 12:41 39.178064 -111.316507 266 33984ft 480kts
28-Dec-19 12:42 39.154631 -111.477106 266 34054ft 480kts
28-Dec-19 12:43 39.129509 -111.647500 266 34137ft 480kts
28-Dec-19 12:44 39.102600 -111.828066 265 34131ft 481kts
28-Dec-19 12:45 39.073919 -112.018381 265 34130ft 485kts
28-Dec-19 12:46 39.046035 -112.201363 265 34133ft 493kts
28-Dec-19 12:47 39.016127 -112.394920 265 34130ft 478kts
28-Dec-19 12:48 38.985707 -112.590105 265 34130ft 477kts
28-Dec-19 12:49 38.955711 -112.780256 264 34118ft 475kts
28-Dec-19 12:50 38.931343 -112.933115 267 34106ft 473kts
28-Dec-19 12:51 38.901126 -113.120795 270 34103ft 466kts
28-Dec-19 12:52 38.873278 -113.292216 270 34101ft 467kts
28-Dec-19 12:53 38.844178 -113.469363 270 34102ft 465kts
28-Dec-19 12:54 38.815341 -113.643396 270 34103ft 468kts
28-Dec-19 12:55 38.786898 -113.813154 269 34110ft 467kts
28-Dec-19 12:56 38.755400 -113.999459 269 34148ft 467kts
28-Dec-19 12:57 38.723943 -114.183622 269 34147ft 468kts
28-Dec-19 12:58 38.692298 -114.366978 269 34148ft 466kts
28-Dec-19 12:59 38.664202 -114.528321 269 34147ft 466kts
28-Dec-19 13:00 38.635808 -114.690037 268 34148ft 468kts
28-Dec-19 13:01 38.607111 -114.852009 268 34147ft 469kts
28-Dec-19 13:02 38.578089 -115.014291 268 34149ft 466kts
28-Dec-19 13:03 38.549167 -115.174580 268 34150ft 457kts
28-Dec-19 13:04 38.520534 -115.332313 268 34147ft 456kts
28-Dec-19 13:05 38.491541 -115.490601 268 34147ft 456kts
28-Dec-19 13:06 38.462434 -115.648197 268 34148ft 457kts
28-Dec-19 13:07 38.433030 -115.806124 267 34171ft 459kts
28-Dec-19 13:08 38.403306 -115.964436 267 34196ft 459kts
28-Dec-19 13:09 38.373374 -116.122643 267 34195ft 459kts
28-Dec-19 13:10 38.343161 -116.281027 267 34195ft 458kts
28-Dec-19 13:11 38.309688 -116.437964 263 34175ft 459kts
28-Dec-19 13:12 38.274418 -116.594574 263 34176ft 461kts
28-Dec-19 13:13 38.238872 -116.751249 263 34177ft 461kts
28-Dec-19 13:14 38.203076 -116.907980 263 34175ft 463kts
28-Dec-19 13:15 38.167160 -117.064113 261 34176ft 461kts
28-Dec-19 13:16 38.130919 -117.220638 260 34175ft 460kts
28-Dec-19 13:17 38.094901 -117.376378 261 34175ft 460kts
28-Dec-19 13:18 38.059096 -117.530816 261 34176ft 459kts
28-Dec-19 13:19 38.023366 -117.683940 260 34171ft 461kts
28-Dec-19 13:20 37.995686 -117.841417 269 34152ft 451kts
28-Dec-19 13:21 37.979122 -117.998801 269 34135ft 450kts
28-Dec-19 13:22 37.962380 -118.155916 269 34093ft 449kts
28-Dec-19 13:23 37.945860 -118.308648 269 32788ft 441kts
28-Dec-19 13:24 37.929621 -118.457582 269 31836ft 441kts
28-Dec-19 13:25 37.913051 -118.607561 269 30907ft 444kts
28-Dec-19 13:26 37.899212 -118.731400 268 30124ft 446kts
28-Dec-19 13:27 37.884105 -118.865244 267 29263ft 449kts
28-Dec-19 13:28 37.868661 -119.000730 265 28414ft 453kts
28-Dec-19 13:29 37.852590 -119.140031 265 27543ft 449kts
28-Dec-19 13:30 37.834095 -119.298641 265 27176ft 447kts
28-Dec-19 13:31 37.815287 -119.458080 265 27175ft 446kts
28-Dec-19 13:32 37.796238 -119.617618 265 27196ft 445kts
28-Dec-19 13:33 37.778727 -119.762662 264 27233ft 444kts
28-Dec-19 13:34 37.762166 -119.898490 264 27238ft 444kts
28-Dec-19 13:35 37.745209 -120.036355 264 27238ft 444kts
28-Dec-19 13:36 37.727902 -120.176114 264 27239ft 444kts
28-Dec-19 13:37 37.709425 -120.321096 264 27239ft 444kts
28-Dec-19 13:38 37.691434 -120.467562 265 26571ft 436kts
28-Dec-19 13:39 37.674599 -120.612652 265 24446ft 421kts
28-Dec-19 13:40 37.660418 -120.732515 265 23553ft 386kts
28-Dec-19 13:41 37.646618 -120.847759 265 22010ft 373kts
28-Dec-19 13:42 37.633192 -120.959019 264 20361ft 363kts
28-Dec-19 13:43 37.618256 -121.071682 263 18666ft 354kts
28-Dec-19 13:44 37.603265 -121.183190 263 16964ft 344kts
28-Dec-19 13:45 37.588846 -121.292347 265 15275ft 333kts
28-Dec-19 13:46 37.576554 -121.400761 265 13595ft 325kts
28-Dec-19 13:47 37.564231 -121.507341 266 11943ft 317kts
28-Dec-19 13:48 37.552512 -121.607026 266 11151ft 285kts
28-Dec-19 13:49 37.532672 -121.699118 256 9991ft 279kts
28-Dec-19 13:50 37.510695 -121.791080 256 8890ft 268kts
28-Dec-19 13:51 37.490941 -121.877027 269 7921ft 254kts
28-Dec-19 13:52 37.495470 -121.961290 276 6607ft 249kts
28-Dec-19 13:53 37.500589 -122.049275 276 4893ft 234kts
28-Dec-19 13:54 37.513571 -122.119705 302 4171ft 179kts
28-Dec-19 13:55 37.533473 -122.165798 298 3326ft 156kts
28-Dec-19 13:56 37.551928 -122.210096 298 2601ft 132kts
28-Dec-19 13:57 37.569862 -122.252971 298 1866ft 133kts
28-Dec-19 13:58 37.588562 -122.297595 299 1097ft 135kts
28-Dec-19 13:59 37.607099 -122.341844 298 333ft 136kts
28-Dec-19 14:00 37.621749 -122.377100 293 26ft 30kts

Navigation Log

Ident Type
Flight plan parsing failed, navigation log unavailable